THA867 VTSP-EDDM
Flight info
| Callsign | THA867 |
|---|---|
| Flight time | N/A |
| Altitude | 32000 |
| Route | UPSAB L515 OBMOG M770 KAKID M875 LAPAN/N0499F340 M875 DI N644 DOBAT/N0484F360 N644 LEMOD A909 RODAR N644 ROLIN UN644 SIN/N0484F380 UW90 DEVMU UL852 NEGEM Q6 ERDOM Y520 UTEKA DCT TUVAR DCT PETOV DCT RADLY DCT RASTA DCT REDBU Q112 NAPSA |
| Aircraft | B772/H-SDE2E3FGHIJ5LORVWXY/LB1D1 |
Departure
| Time | 2026-05-03 22:22 |
|---|---|
| Airport | Phuket International Airport (VTSP) |
Arrival
| Time | N/A |
|---|---|
| Airport | Munich Airport (EDDM) |
| Time | Latitude | Longitude | Altitude | Speed | Heading |
|---|---|---|---|---|---|
| 2026-05-03 21:42 | 8.10516 | 98.30437 | 43 ft | 0 kts | 104° |
| 2026-05-03 22:12 | 8.10516 | 98.30438 | 42 ft | 0 kts | 105° |
| 2026-05-03 22:12 | 8.10519 | 98.30430 | 42 ft | 3 kts | 105° |
| 2026-05-03 22:13 | 8.10525 | 98.30408 | 42 ft | 4 kts | 104° |
| 2026-05-03 22:13 | 8.10527 | 98.30389 | 41 ft | 2 kts | 81° |
| 2026-05-03 22:13 | 8.10522 | 98.30369 | 41 ft | 3 kts | 68° |
| 2026-05-03 22:13 | 8.10515 | 98.30356 | 41 ft | 1 kts | 36° |
| 2026-05-03 22:14 | 8.10510 | 98.30352 | 41 ft | 1 kts | 27° |
| 2026-05-03 22:14 | 8.10497 | 98.30346 | 41 ft | 3 kts | 19° |
| 2026-05-03 22:14 | 8.10484 | 98.30341 | 41 ft | 0 kts | 18° |
| 2026-05-03 22:17 | 8.10505 | 98.30348 | 41 ft | 6 kts | 15° |
| 2026-05-03 22:17 | 8.10568 | 98.30364 | 40 ft | 14 kts | 14° |
| 2026-05-03 22:18 | 8.10661 | 98.30389 | 40 ft | 19 kts | 14° |
| 2026-05-03 22:18 | 8.10804 | 98.30424 | 40 ft | 24 kts | 13° |
| 2026-05-03 22:18 | 8.10917 | 98.30458 | 39 ft | 11 kts | 13° |
| 2026-05-03 22:18 | 8.10996 | 98.30476 | 40 ft | 11 kts | 12° |
| 2026-05-03 22:19 | 8.11050 | 98.30489 | 40 ft | 5 kts | 15° |
| 2026-05-03 22:19 | 8.11085 | 98.30500 | 39 ft | 8 kts | 16° |
| 2026-05-03 22:19 | 8.11096 | 98.30503 | 39 ft | 0 kts | 15° |
| 2026-05-03 22:20 | 8.11109 | 98.30507 | 39 ft | 5 kts | 15° |
| 2026-05-03 22:20 | 8.11169 | 98.30524 | 38 ft | 11 kts | 22° |
| 2026-05-03 22:20 | 8.11206 | 98.30579 | 39 ft | 10 kts | 63° |
| 2026-05-03 22:21 | 8.11219 | 98.30618 | 40 ft | 0 kts | 85° |
| 2026-05-03 22:21 | 8.11222 | 98.30646 | 40 ft | 17 kts | 84° |
| 2026-05-03 22:22 | 8.11256 | 98.30983 | 47 ft | 82 kts | 84° |
| 2026-05-03 22:22 | 8.11430 | 98.32787 | 126 ft | 182 kts | 84° |
| 2026-05-03 22:22 | 8.11608 | 98.34473 | 934 ft | 181 kts | 85° |
| 2026-05-03 22:23 | 8.11737 | 98.36325 | 1522 ft | 195 kts | 82° |
| 2026-05-03 22:23 | 8.11956 | 98.38293 | 2020 ft | 204 kts | 82° |
| 2026-05-03 22:23 | 8.12188 | 98.40901 | 2570 ft | 220 kts | 83° |
| 2026-05-03 22:23 | 8.12337 | 98.42474 | 2802 ft | 233 kts | 83° |
| 2026-05-03 22:24 | 8.12496 | 98.44153 | 3066 ft | 247 kts | 83° |
| 2026-05-03 22:24 | 8.12663 | 98.45925 | 3371 ft | 260 kts | 83° |
| 2026-05-03 22:24 | 8.12719 | 98.46533 | 3554 ft | 260 kts | 83° |
| 2026-05-03 22:24 | 8.13004 | 98.49578 | 4505 ft | 262 kts | 83° |
| 2026-05-03 22:25 | 8.13174 | 98.51402 | 5052 ft | 263 kts | 84° |
| 2026-05-03 22:25 | 8.13348 | 98.53256 | 5595 ft | 265 kts | 84° |
| 2026-05-03 22:25 | 8.13521 | 98.55103 | 6125 ft | 266 kts | 84° |
| 2026-05-03 22:25 | 8.13694 | 98.56956 | 6620 ft | 268 kts | 84° |
| 2026-05-03 22:26 | 8.14138 | 98.58772 | 7060 ft | 271 kts | 63° |
| 2026-05-03 22:26 | 8.15306 | 98.60260 | 7510 ft | 275 kts | 39° |
| 2026-05-03 22:26 | 8.17048 | 98.61123 | 7921 ft | 282 kts | 14° |
| 2026-05-03 22:26 | 8.19008 | 98.61353 | 8397 ft | 286 kts | 5° |
| 2026-05-03 22:27 | 8.21019 | 98.61429 | 8853 ft | 289 kts | 5° |
| 2026-05-03 22:27 | 8.23060 | 98.61491 | 9298 ft | 292 kts | 4° |
| 2026-05-03 22:27 | 8.25106 | 98.61559 | 9754 ft | 294 kts | 5° |
| 2026-05-03 22:27 | 8.27152 | 98.61631 | 10199 ft | 297 kts | 5° |
| 2026-05-03 22:28 | 8.29294 | 98.61708 | 10339 ft | 312 kts | 4° |
| 2026-05-03 22:28 | 8.31514 | 98.61785 | 10610 ft | 322 kts | 2° |
| 2026-05-03 22:28 | 8.33764 | 98.61440 | 11026 ft | 330 kts | 341° |
| 2026-05-03 22:28 | 8.35757 | 98.60214 | 11423 ft | 339 kts | 318° |
| 2026-05-03 22:29 | 8.37182 | 98.58261 | 11537 ft | 356 kts | 296° |
| 2026-05-03 22:29 | 8.38144 | 98.55905 | 11606 ft | 372 kts | 291° |
| 2026-05-03 22:29 | 8.39077 | 98.53382 | 11717 ft | 387 kts | 291° |
| 2026-05-03 22:29 | 8.40038 | 98.50813 | 11825 ft | 400 kts | 291° |
| 2026-05-03 22:30 | 8.41034 | 98.48175 | 12218 ft | 404 kts | 291° |
| 2026-05-03 22:30 | 8.42044 | 98.45509 | 12684 ft | 406 kts | 291° |
| 2026-05-03 22:30 | 8.43056 | 98.42850 | 13164 ft | 408 kts | 291° |
| 2026-05-03 22:30 | 8.44076 | 98.40173 | 13593 ft | 412 kts | 291° |
| 2026-05-03 22:31 | 8.45101 | 98.37486 | 14054 ft | 415 kts | 291° |
| 2026-05-03 22:31 | 8.46148 | 98.34745 | 14544 ft | 417 kts | 291° |
| 2026-05-03 22:31 | 8.47201 | 98.31990 | 15021 ft | 420 kts | 291° |
| 2026-05-03 22:31 | 8.48249 | 98.29248 | 15457 ft | 423 kts | 291° |
| 2026-05-03 22:32 | 8.49320 | 98.26446 | 15915 ft | 426 kts | 291° |
| 2026-05-03 22:32 | 8.50377 | 98.23680 | 16410 ft | 428 kts | 291° |
| 2026-05-03 22:32 | 8.50723 | 98.22775 | 16553 ft | 429 kts | 291° |
| 2026-05-03 22:32 | 8.51758 | 98.20068 | 16972 ft | 432 kts | 291° |
| 2026-05-03 22:33 | 8.52844 | 98.17224 | 17399 ft | 435 kts | 291° |
| 2026-05-03 22:33 | 8.53933 | 98.14385 | 17803 ft | 439 kts | 293° |
| 2026-05-03 22:33 | 8.55316 | 98.11624 | 18216 ft | 441 kts | 303° |
| 2026-05-03 22:33 | 8.57137 | 98.09160 | 18645 ft | 441 kts | 313° |
| 2026-05-03 22:34 | 8.59378 | 98.07018 | 19053 ft | 441 kts | 323° |
| 2026-05-03 22:34 | 8.61951 | 98.05297 | 19447 ft | 442 kts | 333° |
| 2026-05-03 22:34 | 8.64676 | 98.03886 | 19846 ft | 444 kts | 335° |
| 2026-05-03 22:34 | 8.67480 | 98.02480 | 20273 ft | 446 kts | 335° |
| 2026-05-03 22:35 | 8.70241 | 98.01096 | 20686 ft | 448 kts | 335° |
| 2026-05-03 22:35 | 8.73047 | 97.99688 | 21100 ft | 449 kts | 335° |
| 2026-05-03 22:35 | 8.75850 | 97.98280 | 21506 ft | 451 kts | 335° |
| 2026-05-03 22:35 | 8.78691 | 97.96852 | 21875 ft | 454 kts | 335° |
| 2026-05-03 22:36 | 8.81540 | 97.95419 | 22249 ft | 456 kts | 335° |
| 2026-05-03 22:36 | 8.84386 | 97.93987 | 22630 ft | 458 kts | 335° |
| 2026-05-03 22:36 | 8.87237 | 97.92553 | 22975 ft | 461 kts | 335° |
| 2026-05-03 22:36 | 8.90132 | 97.91095 | 23319 ft | 464 kts | 335° |
| 2026-05-03 22:37 | 8.93024 | 97.89638 | 23675 ft | 466 kts | 335° |
| 2026-05-03 22:37 | 8.95961 | 97.88159 | 24023 ft | 469 kts | 335° |
| 2026-05-03 22:37 | 8.98905 | 97.86676 | 24350 ft | 471 kts | 334° |
| 2026-05-03 22:37 | 9.01824 | 97.85205 | 24644 ft | 474 kts | 334° |
| 2026-05-03 22:38 | 9.04804 | 97.83701 | 24960 ft | 477 kts | 334° |
| 2026-05-03 22:38 | 9.07805 | 97.82185 | 25270 ft | 479 kts | 334° |
| 2026-05-03 22:38 | 9.10814 | 97.80665 | 25593 ft | 481 kts | 334° |
| 2026-05-03 22:38 | 9.13821 | 97.79146 | 25890 ft | 483 kts | 334° |
| 2026-05-03 22:39 | 9.16829 | 97.77626 | 26185 ft | 485 kts | 334° |
| 2026-05-03 22:39 | 9.19870 | 97.76089 | 26475 ft | 487 kts | 334° |
| 2026-05-03 22:39 | 9.22916 | 97.74550 | 26771 ft | 489 kts | 334° |
| 2026-05-03 22:39 | 9.25950 | 97.73016 | 27049 ft | 491 kts | 334° |
| 2026-05-03 22:40 | 9.29001 | 97.71472 | 27318 ft | 492 kts | 334° |
| 2026-05-03 22:40 | 9.32085 | 97.69913 | 27590 ft | 494 kts | 334° |
| 2026-05-03 22:40 | 9.35162 | 97.68356 | 27843 ft | 496 kts | 333° |
| 2026-05-03 22:40 | 9.38257 | 97.66790 | 28061 ft | 499 kts | 333° |
| 2026-05-03 22:41 | 9.41374 | 97.65213 | 28305 ft | 500 kts | 333° |
| 2026-05-03 22:41 | 9.44498 | 97.63631 | 28538 ft | 502 kts | 333° |
| 2026-05-03 22:41 | 9.47634 | 97.62044 | 28789 ft | 504 kts | 333° |
| 2026-05-03 22:41 | 9.50786 | 97.60448 | 29078 ft | 505 kts | 333° |
| 2026-05-03 22:42 | 9.53936 | 97.58853 | 29403 ft | 504 kts | 333° |
| 2026-05-03 22:42 | 9.57089 | 97.57256 | 29773 ft | 503 kts | 333° |
| 2026-05-03 22:42 | 9.60198 | 97.55680 | 30186 ft | 501 kts | 333° |
| 2026-05-03 22:42 | 9.63317 | 97.54099 | 30588 ft | 498 kts | 333° |
| 2026-05-03 22:43 | 9.66401 | 97.52536 | 30969 ft | 497 kts | 333° |
| 2026-05-03 22:43 | 9.69496 | 97.50967 | 31367 ft | 494 kts | 333° |
| 2026-05-03 22:43 | 9.72574 | 97.49406 | 31742 ft | 492 kts | 333° |
| 2026-05-03 22:43 | 9.75613 | 97.47865 | 31862 ft | 494 kts | 333° |
| 2026-05-03 22:44 | 9.78701 | 97.46298 | 31868 ft | 493 kts | 333° |
| 2026-05-03 22:44 | 9.84807 | 97.43200 | 31869 ft | 491 kts | 333° |
| 2026-05-03 22:45 | 9.90943 | 97.40085 | 31868 ft | 492 kts | 333° |
| 2026-05-03 22:45 | 9.97087 | 97.36964 | 31868 ft | 492 kts | 333° |
| 2026-05-03 22:46 | 10.03196 | 97.33871 | 31868 ft | 490 kts | 333° |
| 2026-05-03 22:46 | 10.09353 | 97.30776 | 31870 ft | 491 kts | 333° |
| 2026-05-03 22:47 | 10.15454 | 97.27708 | 31868 ft | 491 kts | 333° |
| 2026-05-03 22:47 | 10.21603 | 97.24614 | 31870 ft | 491 kts | 333° |
| 2026-05-03 22:48 | 10.27703 | 97.21542 | 31870 ft | 490 kts | 333° |
| 2026-05-03 22:48 | 10.33840 | 97.18450 | 31873 ft | 490 kts | 333° |
| 2026-05-03 22:49 | 10.39926 | 97.15383 | 31868 ft | 489 kts | 333° |
| 2026-05-03 22:49 | 10.46024 | 97.12308 | 31866 ft | 488 kts | 333° |
| 2026-05-03 22:50 | 10.52139 | 97.09223 | 31855 ft | 488 kts | 333° |
| 2026-05-03 22:50 | 10.58193 | 97.06168 | 31850 ft | 487 kts | 333° |
| 2026-05-03 22:51 | 10.64299 | 97.03085 | 31850 ft | 488 kts | 333° |
| 2026-05-03 22:51 | 10.70354 | 97.00026 | 31850 ft | 487 kts | 333° |
| 2026-05-03 22:52 | 10.76445 | 96.96947 | 31851 ft | 486 kts | 333° |
| 2026-05-03 22:52 | 10.82512 | 96.93880 | 31849 ft | 486 kts | 333° |
| 2026-05-03 22:53 | 10.88580 | 96.90810 | 31848 ft | 486 kts | 332° |
| 2026-05-03 22:53 | 10.94635 | 96.87746 | 31850 ft | 487 kts | 332° |
| 2026-05-03 22:54 | 11.00704 | 96.84673 | 31858 ft | 486 kts | 332° |
| 2026-05-03 22:54 | 11.06748 | 96.81612 | 31864 ft | 486 kts | 332° |
| 2026-05-03 22:55 | 11.12792 | 96.78548 | 31866 ft | 485 kts | 332° |
| 2026-05-03 22:55 | 11.18847 | 96.75478 | 31868 ft | 485 kts | 332° |
| 2026-05-03 22:56 | 11.24917 | 96.72399 | 31868 ft | 486 kts | 332° |
| 2026-05-03 22:56 | 11.30991 | 96.69317 | 31866 ft | 486 kts | 332° |
| 2026-05-03 22:57 | 11.37063 | 96.66234 | 31867 ft | 486 kts | 332° |
| 2026-05-03 22:57 | 11.43116 | 96.63158 | 31867 ft | 487 kts | 332° |
| 2026-05-03 22:58 | 11.49161 | 96.60087 | 31866 ft | 486 kts | 332° |
| 2026-05-03 22:58 | 11.55244 | 96.56993 | 31867 ft | 487 kts | 332° |
| 2026-05-03 22:59 | 11.61315 | 96.53905 | 31867 ft | 487 kts | 332° |
| 2026-05-03 22:59 | 11.67366 | 96.50826 | 31866 ft | 487 kts | 332° |
| 2026-05-03 23:00 | 11.73455 | 96.47725 | 31867 ft | 488 kts | 332° |
| 2026-05-03 23:00 | 11.79531 | 96.44629 | 31865 ft | 488 kts | 332° |
| 2026-05-03 23:01 | 11.85601 | 96.41534 | 31865 ft | 488 kts | 332° |
| 2026-05-03 23:01 | 11.91329 | 96.37861 | 31865 ft | 484 kts | 317° |
| 2026-05-03 23:02 | 11.96171 | 96.33062 | 31866 ft | 483 kts | 313° |
| 2026-05-03 23:02 | 12.00887 | 96.28232 | 31869 ft | 483 kts | 313° |
| 2026-05-03 23:03 | 12.05641 | 96.23357 | 31868 ft | 483 kts | 313° |
| 2026-05-03 23:03 | 12.10374 | 96.18501 | 31869 ft | 483 kts | 313° |
| 2026-05-03 23:04 | 12.15146 | 96.13602 | 31868 ft | 485 kts | 313° |
| 2026-05-03 23:04 | 12.19878 | 96.08740 | 31867 ft | 484 kts | 313° |
| 2026-05-03 23:05 | 12.24642 | 96.03844 | 31868 ft | 484 kts | 313° |
| 2026-05-03 23:05 | 12.29359 | 95.98992 | 31868 ft | 484 kts | 313° |
| 2026-05-03 23:06 | 12.34140 | 95.94074 | 31868 ft | 485 kts | 313° |
| 2026-05-03 23:06 | 12.38865 | 95.89209 | 31871 ft | 484 kts | 313° |
| 2026-05-03 23:07 | 12.43631 | 95.84300 | 31873 ft | 485 kts | 313° |
| 2026-05-03 23:07 | 12.48397 | 95.79387 | 31879 ft | 485 kts | 313° |
| 2026-05-03 23:08 | 12.53127 | 95.74509 | 31882 ft | 485 kts | 313° |
| 2026-05-03 23:08 | 12.57874 | 95.69612 | 31882 ft | 485 kts | 313° |
| 2026-05-03 23:09 | 12.62643 | 95.64688 | 31886 ft | 485 kts | 313° |
| 2026-05-03 23:09 | 12.67386 | 95.59789 | 31886 ft | 485 kts | 313° |
| 2026-05-03 23:10 | 12.72134 | 95.54882 | 31883 ft | 485 kts | 313° |
| 2026-05-03 23:10 | 12.76914 | 95.49939 | 31878 ft | 484 kts | 313° |
| 2026-05-03 23:11 | 12.81627 | 95.45061 | 31876 ft | 485 kts | 313° |
| 2026-05-03 23:11 | 12.86363 | 95.40138 | 31875 ft | 485 kts | 312° |
| 2026-05-03 23:12 | 12.91061 | 95.35140 | 31870 ft | 485 kts | 312° |
| 2026-05-03 23:12 | 12.95731 | 95.30168 | 31874 ft | 485 kts | 311° |
| 2026-05-03 23:13 | 13.00409 | 95.25188 | 31873 ft | 485 kts | 312° |
| 2026-05-03 23:13 | 13.05093 | 95.20202 | 31871 ft | 485 kts | 311° |
| 2026-05-03 23:14 | 13.09775 | 95.15215 | 31870 ft | 484 kts | 312° |
| 2026-05-03 23:14 | 13.14428 | 95.10257 | 31868 ft | 483 kts | 311° |
| 2026-05-03 23:15 | 13.19096 | 95.05280 | 31868 ft | 483 kts | 311° |
| 2026-05-03 23:15 | 13.23759 | 95.00305 | 31868 ft | 484 kts | 311° |
| 2026-05-03 23:16 | 13.28427 | 94.95323 | 31868 ft | 484 kts | 311° |
| 2026-05-03 23:16 | 13.33096 | 94.90337 | 31868 ft | 484 kts | 311° |
| 2026-05-03 23:17 | 13.37763 | 94.85350 | 31867 ft | 484 kts | 311° |
| 2026-05-03 23:17 | 13.42418 | 94.80373 | 31868 ft | 483 kts | 311° |
| 2026-05-03 23:18 | 13.47065 | 94.75401 | 31867 ft | 482 kts | 311° |
| 2026-05-03 23:18 | 13.51702 | 94.70438 | 31867 ft | 483 kts | 311° |
| 2026-05-03 23:19 | 13.56346 | 94.65462 | 31867 ft | 482 kts | 311° |
| 2026-05-03 23:19 | 13.61011 | 94.60463 | 31867 ft | 483 kts | 311° |
| 2026-05-03 23:20 | 13.65657 | 94.55480 | 31867 ft | 482 kts | 311° |
| 2026-05-03 23:20 | 13.70265 | 94.50536 | 31868 ft | 481 kts | 311° |
| 2026-05-03 23:21 | 13.74896 | 94.45563 | 31874 ft | 481 kts | 311° |
| 2026-05-03 23:21 | 13.79551 | 94.40562 | 31879 ft | 481 kts | 311° |
| 2026-05-03 23:22 | 13.86459 | 94.33134 | 31891 ft | 481 kts | 311° |
| 2026-05-03 23:22 | 13.91081 | 94.28161 | 31892 ft | 481 kts | 311° |
| 2026-05-03 23:23 | 13.95703 | 94.23183 | 31892 ft | 480 kts | 311° |
| 2026-05-03 23:23 | 14.00321 | 94.18208 | 31891 ft | 481 kts | 311° |
| 2026-05-03 23:24 | 14.04940 | 94.13229 | 31891 ft | 480 kts | 311° |
| 2026-05-03 23:24 | 14.09548 | 94.08258 | 31891 ft | 481 kts | 311° |
| 2026-05-03 23:25 | 14.14175 | 94.03264 | 31889 ft | 479 kts | 311° |
| 2026-05-03 23:25 | 14.18762 | 93.98309 | 31888 ft | 479 kts | 311° |
| 2026-05-03 23:26 | 14.23390 | 93.93308 | 31889 ft | 479 kts | 311° |
| 2026-05-03 23:26 | 14.27960 | 93.88365 | 31889 ft | 481 kts | 311° |
| 2026-05-03 23:27 | 14.32599 | 93.83344 | 31887 ft | 481 kts | 311° |
| 2026-05-03 23:27 | 14.37199 | 93.78364 | 31887 ft | 481 kts | 311° |
| 2026-05-03 23:28 | 14.41806 | 93.73373 | 31886 ft | 481 kts | 311° |
| 2026-05-03 23:28 | 14.46409 | 93.68381 | 31883 ft | 480 kts | 311° |
| 2026-05-03 23:29 | 14.51036 | 93.63361 | 31883 ft | 482 kts | 311° |
| 2026-05-03 23:29 | 14.55639 | 93.58364 | 31880 ft | 481 kts | 311° |
| 2026-05-03 23:30 | 14.60247 | 93.53359 | 31876 ft | 481 kts | 311° |
| 2026-05-03 23:30 | 14.64861 | 93.48343 | 31876 ft | 482 kts | 311° |
| 2026-05-03 23:31 | 14.69473 | 93.43327 | 31876 ft | 483 kts | 311° |
| 2026-05-03 23:31 | 14.74112 | 93.38277 | 31870 ft | 482 kts | 311° |
| 2026-05-03 23:32 | 14.78710 | 93.33270 | 31874 ft | 483 kts | 311° |
| 2026-05-03 23:32 | 14.83343 | 93.28220 | 31871 ft | 482 kts | 311° |
| 2026-05-03 23:33 | 14.87944 | 93.23202 | 31871 ft | 482 kts | 311° |
| 2026-05-03 23:33 | 14.92569 | 93.18155 | 31870 ft | 483 kts | 311° |
| 2026-05-03 23:34 | 14.97175 | 93.13125 | 31870 ft | 482 kts | 311° |
| 2026-05-03 23:34 | 15.01788 | 93.08084 | 31870 ft | 483 kts | 311° |
| 2026-05-03 23:35 | 15.06403 | 93.03037 | 31868 ft | 482 kts | 311° |
| 2026-05-03 23:35 | 15.10999 | 92.98008 | 31867 ft | 482 kts | 311° |
| 2026-05-03 23:36 | 15.15634 | 92.92932 | 31867 ft | 481 kts | 311° |
| 2026-05-03 23:36 | 15.20222 | 92.87905 | 31873 ft | 481 kts | 311° |
| 2026-05-03 23:37 | 15.24839 | 92.82842 | 31876 ft | 482 kts | 311° |
| 2026-05-03 23:37 | 15.29432 | 92.77802 | 31885 ft | 481 kts | 311° |
| 2026-05-03 23:38 | 15.34012 | 92.72774 | 31885 ft | 482 kts | 312° |
| 2026-05-03 23:38 | 15.38630 | 92.67699 | 31885 ft | 481 kts | 312° |
| 2026-05-03 23:39 | 15.43194 | 92.62682 | 31887 ft | 481 kts | 312° |
| 2026-05-03 23:39 | 15.47919 | 92.57752 | 31886 ft | 481 kts | 314° |
| 2026-05-03 23:40 | 15.52664 | 92.52843 | 31879 ft | 481 kts | 313° |
| 2026-05-03 23:40 | 15.57379 | 92.47952 | 31880 ft | 481 kts | 313° |
| 2026-05-03 23:41 | 15.62121 | 92.43023 | 31881 ft | 481 kts | 313° |
| 2026-05-03 23:41 | 15.66844 | 92.38109 | 31879 ft | 481 kts | 313° |
| 2026-05-03 23:42 | 15.71562 | 92.33193 | 31875 ft | 481 kts | 313° |
| 2026-05-03 23:42 | 15.76299 | 92.28255 | 31879 ft | 481 kts | 313° |
| 2026-05-03 23:43 | 15.81006 | 92.23344 | 31873 ft | 481 kts | 313° |
| 2026-05-03 23:43 | 15.85728 | 92.18413 | 31872 ft | 481 kts | 313° |
| 2026-05-03 23:44 | 15.90437 | 92.13492 | 31869 ft | 481 kts | 313° |
| 2026-05-03 23:44 | 15.95164 | 92.08549 | 31869 ft | 480 kts | 313° |
| 2026-05-03 23:45 | 15.99867 | 92.03628 | 31870 ft | 480 kts | 313° |
| 2026-05-03 23:45 | 16.04556 | 91.98717 | 31872 ft | 481 kts | 313° |
| 2026-05-03 23:46 | 16.09253 | 91.93795 | 31872 ft | 480 kts | 313° |
| 2026-05-03 23:46 | 16.13982 | 91.88836 | 31868 ft | 481 kts | 313° |
| 2026-05-03 23:47 | 16.18709 | 91.83875 | 31868 ft | 481 kts | 313° |
| 2026-05-03 23:47 | 16.23415 | 91.78933 | 31870 ft | 480 kts | 313° |
| 2026-05-03 23:48 | 16.28118 | 91.73991 | 31869 ft | 479 kts | 313° |
| 2026-05-03 23:48 | 16.32822 | 91.69044 | 31869 ft | 479 kts | 313° |
| 2026-05-03 23:49 | 16.37514 | 91.64105 | 31867 ft | 479 kts | 313° |
| 2026-05-03 23:49 | 16.42237 | 91.59132 | 31869 ft | 479 kts | 313° |
| 2026-05-03 23:50 | 16.46149 | 91.55009 | 31869 ft | 480 kts | 313° |
| 2026-05-03 23:50 | 16.51638 | 91.49219 | 31866 ft | 480 kts | 313° |
| 2026-05-03 23:51 | 16.56337 | 91.44260 | 31861 ft | 480 kts | 313° |
| 2026-05-03 23:51 | 16.61005 | 91.39328 | 31858 ft | 479 kts | 313° |
| 2026-05-03 23:52 | 16.65712 | 91.34354 | 31855 ft | 478 kts | 313° |
| 2026-05-03 23:52 | 16.70387 | 91.29408 | 31865 ft | 478 kts | 313° |
| 2026-05-03 23:53 | 16.75026 | 91.24496 | 31873 ft | 477 kts | 313° |
| 2026-05-03 23:53 | 16.79705 | 91.19539 | 31874 ft | 478 kts | 313° |
| 2026-05-03 23:54 | 16.84396 | 91.14565 | 31873 ft | 478 kts | 313° |
| 2026-05-03 23:54 | 16.89059 | 91.09618 | 31871 ft | 478 kts | 313° |
| 2026-05-03 23:55 | 16.93734 | 91.04655 | 31869 ft | 478 kts | 313° |
| 2026-05-03 23:55 | 16.98402 | 90.99694 | 31869 ft | 477 kts | 313° |
| 2026-05-03 23:56 | 17.03044 | 90.94758 | 31869 ft | 476 kts | 313° |
| 2026-05-03 23:56 | 17.07705 | 90.89797 | 31868 ft | 476 kts | 313° |
| 2026-05-03 23:57 | 17.12328 | 90.84874 | 31869 ft | 477 kts | 313° |
| 2026-05-03 23:57 | 17.16973 | 90.79923 | 31867 ft | 477 kts | 313° |
| 2026-05-03 23:58 | 17.21647 | 90.74937 | 31866 ft | 477 kts | 313° |
| 2026-05-03 23:58 | 17.26294 | 90.69978 | 31865 ft | 478 kts | 313° |
| 2026-05-03 23:59 | 17.30963 | 90.64989 | 31865 ft | 478 kts | 313° |
| 2026-05-03 23:59 | 17.35615 | 90.60016 | 31867 ft | 476 kts | 312° |
| 2026-05-04 00:00 | 17.40245 | 90.55062 | 31862 ft | 474 kts | 312° |
| 2026-05-04 00:00 | 17.44916 | 90.50157 | 31860 ft | 475 kts | 313° |
| 2026-05-04 00:01 | 17.49605 | 90.45272 | 31854 ft | 476 kts | 313° |
| 2026-05-04 00:01 | 17.54285 | 90.40389 | 31852 ft | 476 kts | 313° |
| 2026-05-04 00:02 | 17.58961 | 90.35503 | 31851 ft | 476 kts | 313° |
| 2026-05-04 00:02 | 17.63646 | 90.30603 | 31862 ft | 476 kts | 313° |
| 2026-05-04 00:03 | 17.68324 | 90.25706 | 31870 ft | 476 kts | 312° |
| 2026-05-04 00:03 | 17.73022 | 90.20784 | 31873 ft | 476 kts | 313° |
| 2026-05-04 00:04 | 17.77689 | 90.15891 | 31871 ft | 476 kts | 312° |
| 2026-05-04 00:04 | 17.82359 | 90.10989 | 31871 ft | 475 kts | 312° |
| 2026-05-04 00:05 | 17.87039 | 90.06074 | 31869 ft | 475 kts | 312° |
| 2026-05-04 00:05 | 17.91706 | 90.01169 | 31870 ft | 475 kts | 312° |
| 2026-05-04 00:06 | 17.96386 | 89.96246 | 31870 ft | 475 kts | 312° |
| 2026-05-04 00:06 | 18.01073 | 89.91311 | 31865 ft | 474 kts | 312° |
| 2026-05-04 00:07 | 18.05735 | 89.86398 | 31868 ft | 474 kts | 312° |
| 2026-05-04 00:07 | 18.10402 | 89.81477 | 31862 ft | 474 kts | 312° |
| 2026-05-04 00:08 | 18.15047 | 89.76575 | 31855 ft | 473 kts | 312° |
| 2026-05-04 00:08 | 18.19703 | 89.71657 | 31846 ft | 475 kts | 312° |
| 2026-05-04 00:09 | 18.24373 | 89.66721 | 31838 ft | 476 kts | 312° |
| 2026-05-04 00:09 | 18.29034 | 89.61790 | 31836 ft | 476 kts | 312° |
| 2026-05-04 00:10 | 18.33704 | 89.56847 | 31836 ft | 476 kts | 312° |
| 2026-05-04 00:10 | 18.38358 | 89.51914 | 31836 ft | 474 kts | 312° |
| 2026-05-04 00:11 | 18.42995 | 89.46997 | 31833 ft | 475 kts | 312° |
| 2026-05-04 00:11 | 18.47643 | 89.42064 | 31831 ft | 474 kts | 312° |
| 2026-05-04 00:12 | 18.52283 | 89.37137 | 31831 ft | 474 kts | 312° |
| 2026-05-04 00:12 | 18.56952 | 89.32172 | 31841 ft | 474 kts | 312° |
| 2026-05-04 00:13 | 18.61582 | 89.27247 | 31849 ft | 474 kts | 312° |
| 2026-05-04 00:13 | 18.66198 | 89.22332 | 31849 ft | 474 kts | 312° |
| 2026-05-04 00:14 | 18.70862 | 89.17361 | 31849 ft | 474 kts | 312° |
| 2026-05-04 00:14 | 18.75490 | 89.12425 | 31848 ft | 473 kts | 312° |
| 2026-05-04 00:15 | 18.80120 | 89.07483 | 31848 ft | 474 kts | 312° |
| 2026-05-04 00:15 | 18.84751 | 89.02535 | 31848 ft | 473 kts | 312° |
| 2026-05-04 00:16 | 18.89353 | 88.97615 | 31845 ft | 473 kts | 312° |
| 2026-05-04 00:16 | 18.93987 | 88.92657 | 31847 ft | 473 kts | 312° |
| 2026-05-04 00:17 | 18.98618 | 88.87696 | 31846 ft | 473 kts | 312° |
| 2026-05-04 00:17 | 19.03230 | 88.82752 | 31845 ft | 473 kts | 312° |
| 2026-05-04 00:18 | 19.07835 | 88.77812 | 31846 ft | 474 kts | 312° |
| 2026-05-04 00:18 | 19.12471 | 88.72834 | 31845 ft | 474 kts | 312° |
| 2026-05-04 00:19 | 19.17095 | 88.67865 | 31844 ft | 474 kts | 312° |
| 2026-05-04 00:19 | 19.21673 | 88.62827 | 31844 ft | 474 kts | 311° |
| 2026-05-04 00:20 | 19.26171 | 88.57747 | 31843 ft | 474 kts | 311° |
| 2026-05-04 00:20 | 19.30692 | 88.52644 | 31844 ft | 474 kts | 311° |
| 2026-05-04 00:21 | 19.35199 | 88.47559 | 31843 ft | 474 kts | 311° |
| 2026-05-04 00:21 | 19.39698 | 88.42481 | 31844 ft | 474 kts | 311° |
| 2026-05-04 00:22 | 19.44208 | 88.37387 | 31841 ft | 473 kts | 311° |
| 2026-05-04 00:22 | 19.48729 | 88.32278 | 31850 ft | 474 kts | 310° |
| 2026-05-04 00:23 | 19.53226 | 88.27190 | 31851 ft | 474 kts | 310° |
| 2026-05-04 00:23 | 19.57754 | 88.22066 | 31850 ft | 474 kts | 310° |
| 2026-05-04 00:24 | 19.62238 | 88.16985 | 31850 ft | 475 kts | 310° |
| 2026-05-04 00:24 | 19.66752 | 88.11866 | 31847 ft | 475 kts | 310° |
| 2026-05-04 00:25 | 19.71248 | 88.06763 | 31847 ft | 475 kts | 310° |
| 2026-05-04 00:25 | 19.75788 | 88.01605 | 31835 ft | 474 kts | 310° |
| 2026-05-04 00:26 | 19.80264 | 87.96516 | 31831 ft | 474 kts | 310° |
| 2026-05-04 00:26 | 19.84777 | 87.91380 | 31825 ft | 474 kts | 310° |
| 2026-05-04 00:27 | 19.89247 | 87.86289 | 31826 ft | 475 kts | 310° |
| 2026-05-04 00:27 | 19.93762 | 87.81142 | 31822 ft | 474 kts | 310° |
| 2026-05-04 00:28 | 19.98267 | 87.76000 | 31824 ft | 475 kts | 310° |
| 2026-05-04 00:28 | 20.02772 | 87.70856 | 31826 ft | 475 kts | 310° |
| 2026-05-04 00:29 | 20.07265 | 87.65720 | 31826 ft | 475 kts | 310° |
| 2026-05-04 00:29 | 20.11770 | 87.60565 | 31824 ft | 475 kts | 310° |
| 2026-05-04 00:30 | 20.16263 | 87.55420 | 31824 ft | 474 kts | 310° |
| 2026-05-04 00:30 | 20.20724 | 87.50307 | 31824 ft | 474 kts | 310° |
| 2026-05-04 00:31 | 20.25227 | 87.45140 | 31823 ft | 474 kts | 310° |
| 2026-05-04 00:31 | 20.29705 | 87.39999 | 31823 ft | 475 kts | 310° |
| 2026-05-04 00:32 | 20.34189 | 87.34844 | 31823 ft | 474 kts | 310° |
| 2026-05-04 00:32 | 20.38708 | 87.29645 | 31829 ft | 475 kts | 310° |
| 2026-05-04 00:33 | 20.45457 | 87.21872 | 31829 ft | 474 kts | 310° |
| 2026-05-04 00:34 | 20.49898 | 87.16703 | 31830 ft | 474 kts | 309° |
| 2026-05-04 00:34 | 20.54316 | 87.11486 | 31829 ft | 474 kts | 309° |
| 2026-05-04 00:35 | 20.58730 | 87.06272 | 31828 ft | 474 kts | 309° |
| 2026-05-04 00:35 | 20.63131 | 87.01073 | 31828 ft | 474 kts | 309° |
| 2026-05-04 00:36 | 20.67600 | 86.95865 | 31825 ft | 474 kts | 310° |
| 2026-05-04 00:36 | 20.72080 | 86.90707 | 31824 ft | 474 kts | 310° |
| 2026-05-04 00:37 | 20.76562 | 86.85538 | 31824 ft | 474 kts | 310° |
| 2026-05-04 00:37 | 20.81035 | 86.80373 | 31824 ft | 473 kts | 310° |
| 2026-05-04 00:38 | 20.85542 | 86.75243 | 31821 ft | 473 kts | 311° |
| 2026-05-04 00:38 | 20.90066 | 86.70158 | 31817 ft | 474 kts | 311° |
| 2026-05-04 00:39 | 20.94614 | 86.65035 | 31810 ft | 474 kts | 311° |
| 2026-05-04 00:39 | 20.99149 | 86.59918 | 31806 ft | 474 kts | 311° |
| 2026-05-04 00:40 | 21.03682 | 86.54797 | 31805 ft | 474 kts | 311° |
| 2026-05-04 00:40 | 21.08206 | 86.49681 | 31805 ft | 473 kts | 311° |
| 2026-05-04 00:41 | 21.12737 | 86.44552 | 31812 ft | 473 kts | 311° |
| 2026-05-04 00:41 | 21.17285 | 86.39398 | 31819 ft | 473 kts | 311° |
| 2026-05-04 00:42 | 21.21802 | 86.34274 | 31829 ft | 473 kts | 310° |
| 2026-05-04 00:42 | 21.26329 | 86.29134 | 31841 ft | 473 kts | 310° |
| 2026-05-04 00:43 | 21.30863 | 86.23980 | 31850 ft | 474 kts | 310° |
| 2026-05-04 00:43 | 21.35359 | 86.18865 | 31855 ft | 474 kts | 310° |
| 2026-05-04 00:44 | 21.39902 | 86.13692 | 31857 ft | 474 kts | 310° |
| 2026-05-04 00:44 | 21.44406 | 86.08558 | 31865 ft | 474 kts | 310° |
| 2026-05-04 00:45 | 21.48927 | 86.03400 | 31864 ft | 475 kts | 310° |
| 2026-05-04 00:45 | 21.53451 | 85.98234 | 31865 ft | 476 kts | 310° |
| 2026-05-04 00:46 | 21.57980 | 85.93057 | 31872 ft | 475 kts | 310° |
| 2026-05-04 00:46 | 21.62498 | 85.87886 | 31876 ft | 474 kts | 310° |
| 2026-05-04 00:47 | 21.67005 | 85.82724 | 31881 ft | 475 kts | 310° |
| 2026-05-04 00:47 | 21.71517 | 85.77550 | 31880 ft | 474 kts | 310° |
| 2026-05-04 00:48 | 21.76027 | 85.72375 | 31882 ft | 474 kts | 310° |
| 2026-05-04 00:48 | 21.80541 | 85.67190 | 31886 ft | 474 kts | 310° |
| 2026-05-04 00:49 | 21.85021 | 85.62037 | 31887 ft | 475 kts | 310° |
| 2026-05-04 00:49 | 21.89547 | 85.56828 | 31886 ft | 474 kts | 310° |
| 2026-05-04 00:50 | 21.94039 | 85.51653 | 31882 ft | 474 kts | 310° |
| 2026-05-04 00:50 | 21.98560 | 85.46439 | 31880 ft | 473 kts | 310° |
| 2026-05-04 00:51 | 22.03025 | 85.41283 | 31879 ft | 473 kts | 310° |
| 2026-05-04 00:51 | 22.07527 | 85.36081 | 31888 ft | 473 kts | 310° |
| 2026-05-04 00:52 | 22.12024 | 85.30878 | 31895 ft | 472 kts | 309° |
| 2026-05-04 00:52 | 22.16513 | 85.25680 | 31898 ft | 472 kts | 309° |
| 2026-05-04 00:53 | 22.20986 | 85.20495 | 31889 ft | 472 kts | 309° |
| 2026-05-04 00:53 | 22.25444 | 85.15323 | 31876 ft | 472 kts | 309° |
| 2026-05-04 00:54 | 22.29938 | 85.10103 | 31859 ft | 471 kts | 309° |
| 2026-05-04 00:54 | 22.34387 | 85.04930 | 31851 ft | 471 kts | 309° |
| 2026-05-04 00:55 | 22.38847 | 84.99740 | 31850 ft | 469 kts | 309° |
| 2026-05-04 00:55 | 22.43274 | 84.94583 | 31854 ft | 470 kts | 309° |
| 2026-05-04 00:56 | 22.47720 | 84.89398 | 31856 ft | 469 kts | 309° |
| 2026-05-04 00:56 | 22.52150 | 84.84227 | 31864 ft | 468 kts | 309° |
| 2026-05-04 00:57 | 22.56606 | 84.79084 | 31871 ft | 469 kts | 309° |
| 2026-05-04 00:57 | 22.61058 | 84.73982 | 31885 ft | 468 kts | 309° |
| 2026-05-04 00:58 | 22.65534 | 84.68845 | 31894 ft | 468 kts | 309° |
| 2026-05-04 00:58 | 22.70010 | 84.63699 | 31901 ft | 468 kts | 309° |
| 2026-05-04 00:59 | 22.74437 | 84.58604 | 31913 ft | 467 kts | 309° |
| 2026-05-04 00:59 | 22.78891 | 84.53472 | 31922 ft | 467 kts | 309° |
| 2026-05-04 01:00 | 22.83355 | 84.48323 | 31921 ft | 468 kts | 309° |
| 2026-05-04 01:00 | 22.87804 | 84.43188 | 31928 ft | 468 kts | 309° |
| 2026-05-04 01:01 | 22.92253 | 84.38045 | 31936 ft | 468 kts | 309° |
| 2026-05-04 01:01 | 22.96695 | 84.32907 | 31958 ft | 466 kts | 308° |
| 2026-05-04 01:02 | 23.01123 | 84.27779 | 31971 ft | 464 kts | 308° |
| 2026-05-04 01:02 | 23.05543 | 84.22654 | 31974 ft | 466 kts | 308° |
| 2026-05-04 01:03 | 23.09963 | 84.17524 | 31974 ft | 465 kts | 308° |
| 2026-05-04 01:03 | 23.14395 | 84.12376 | 31973 ft | 465 kts | 308° |
| 2026-05-04 01:04 | 23.18802 | 84.07250 | 31982 ft | 466 kts | 308° |
| 2026-05-04 01:04 | 23.23219 | 84.02109 | 31981 ft | 466 kts | 308° |
| 2026-05-04 01:05 | 23.27648 | 83.96948 | 31985 ft | 465 kts | 308° |
| 2026-05-04 01:05 | 23.32058 | 83.91803 | 31985 ft | 465 kts | 308° |
| 2026-05-04 01:06 | 23.36462 | 83.86660 | 31979 ft | 466 kts | 308° |
| 2026-05-04 01:06 | 23.40866 | 83.81512 | 31953 ft | 465 kts | 308° |
| 2026-05-04 01:07 | 23.45295 | 83.76328 | 31929 ft | 466 kts | 308° |
| 2026-05-04 01:07 | 23.49697 | 83.71172 | 31910 ft | 465 kts | 308° |
| 2026-05-04 01:08 | 23.54078 | 83.66035 | 31906 ft | 465 kts | 308° |
| 2026-05-04 01:08 | 23.58467 | 83.60883 | 31902 ft | 466 kts | 308° |
| 2026-05-04 01:09 | 23.62878 | 83.55698 | 31894 ft | 466 kts | 308° |
| 2026-05-04 01:09 | 23.67289 | 83.50510 | 31891 ft | 465 kts | 308° |
| 2026-05-04 01:10 | 23.71651 | 83.45372 | 31890 ft | 464 kts | 308° |
| 2026-05-04 01:10 | 23.75793 | 83.39966 | 31884 ft | 463 kts | 303° |
| 2026-05-04 01:11 | 23.79750 | 83.34468 | 31868 ft | 461 kts | 303° |
| 2026-05-04 01:11 | 23.83709 | 83.28961 | 31873 ft | 462 kts | 303° |
| 2026-05-04 01:12 | 23.87691 | 83.23422 | 31856 ft | 460 kts | 303° |
| 2026-05-04 01:12 | 23.91617 | 83.17953 | 31853 ft | 461 kts | 303° |
| 2026-05-04 01:13 | 23.95584 | 83.12423 | 31842 ft | 461 kts | 303° |
| 2026-05-04 01:13 | 23.99510 | 83.06943 | 31838 ft | 460 kts | 302° |
| 2026-05-04 01:14 | 24.03461 | 83.01423 | 31836 ft | 460 kts | 302° |
| 2026-05-04 01:14 | 24.07407 | 82.95904 | 31835 ft | 460 kts | 302° |
| 2026-05-04 01:15 | 24.11375 | 82.90347 | 31832 ft | 462 kts | 302° |
| 2026-05-04 01:15 | 24.15319 | 82.84821 | 31829 ft | 459 kts | 302° |
| 2026-05-04 01:16 | 24.19245 | 82.79310 | 31829 ft | 460 kts | 302° |
| 2026-05-04 01:16 | 24.23177 | 82.73785 | 31836 ft | 460 kts | 302° |
| 2026-05-04 01:17 | 24.27096 | 82.68273 | 31841 ft | 459 kts | 302° |
| 2026-05-04 01:17 | 24.31021 | 82.62746 | 31839 ft | 459 kts | 302° |
| 2026-05-04 01:18 | 24.34938 | 82.57224 | 31830 ft | 461 kts | 302° |
| 2026-05-04 01:18 | 24.38874 | 82.51670 | 31825 ft | 459 kts | 302° |
| 2026-05-04 01:19 | 24.42790 | 82.46137 | 31813 ft | 461 kts | 302° |
| 2026-05-04 01:19 | 24.46703 | 82.40603 | 31806 ft | 457 kts | 301° |
| 2026-05-04 01:20 | 24.50604 | 82.35077 | 31797 ft | 461 kts | 301° |
| 2026-05-04 01:20 | 24.54535 | 82.29506 | 31817 ft | 457 kts | 301° |
| 2026-05-04 01:21 | 24.58428 | 82.23979 | 31818 ft | 458 kts | 301° |
| 2026-05-04 01:21 | 24.62330 | 82.18434 | 31818 ft | 460 kts | 301° |
| 2026-05-04 01:22 | 24.66245 | 82.12865 | 31820 ft | 459 kts | 301° |
| 2026-05-04 01:22 | 24.70142 | 82.07314 | 31821 ft | 461 kts | 301° |
| 2026-05-04 01:23 | 24.74039 | 82.01758 | 31825 ft | 460 kts | 301° |
| 2026-05-04 01:23 | 24.77924 | 81.96212 | 31826 ft | 460 kts | 301° |
| 2026-05-04 01:24 | 24.81827 | 81.90636 | 31818 ft | 458 kts | 301° |
| 2026-05-04 01:24 | 24.85726 | 81.85054 | 31808 ft | 462 kts | 301° |
| 2026-05-04 01:25 | 24.89633 | 81.79459 | 31800 ft | 460 kts | 300° |
| 2026-05-04 01:25 | 24.93498 | 81.73916 | 31796 ft | 458 kts | 300° |
| 2026-05-04 01:26 | 24.97390 | 81.68328 | 31792 ft | 459 kts | 301° |
| 2026-05-04 01:26 | 25.01263 | 81.62760 | 31786 ft | 458 kts | 301° |
| 2026-05-04 01:27 | 25.05117 | 81.57214 | 31790 ft | 457 kts | 301° |
| 2026-05-04 01:27 | 25.09008 | 81.51605 | 31792 ft | 460 kts | 300° |
| 2026-05-04 01:28 | 25.12875 | 81.46029 | 31786 ft | 459 kts | 300° |
| 2026-05-04 01:28 | 25.16780 | 81.40442 | 31788 ft | 460 kts | 301° |
| 2026-05-04 01:29 | 25.20690 | 81.34904 | 31788 ft | 460 kts | 300° |
| 2026-05-04 01:29 | 25.24627 | 81.29319 | 31799 ft | 459 kts | 300° |
| 2026-05-04 01:30 | 25.28557 | 81.23733 | 31796 ft | 461 kts | 300° |
| 2026-05-04 01:30 | 25.32462 | 81.18179 | 31794 ft | 457 kts | 300° |
| 2026-05-04 01:31 | 25.36383 | 81.12589 | 31788 ft | 460 kts | 300° |
| 2026-05-04 01:31 | 25.40270 | 81.07045 | 31782 ft | 458 kts | 300° |
| 2026-05-04 01:32 | 25.44181 | 81.01457 | 31786 ft | 460 kts | 300° |
| 2026-05-04 01:32 | 25.48086 | 80.95874 | 31782 ft | 457 kts | 300° |
| 2026-05-04 01:33 | 25.51992 | 80.90279 | 31785 ft | 459 kts | 300° |
| 2026-05-04 01:33 | 25.55867 | 80.84726 | 31786 ft | 459 kts | 300° |
| 2026-05-04 01:34 | 25.59764 | 80.79133 | 31788 ft | 457 kts | 300° |
| 2026-05-04 01:34 | 25.63661 | 80.73531 | 31786 ft | 459 kts | 300° |
| 2026-05-04 01:35 | 25.67534 | 80.67961 | 31788 ft | 457 kts | 300° |
| 2026-05-04 01:35 | 25.71424 | 80.62355 | 31790 ft | 459 kts | 300° |
| 2026-05-04 01:36 | 25.75307 | 80.56757 | 31789 ft | 458 kts | 300° |
| 2026-05-04 01:36 | 25.79170 | 80.51179 | 31783 ft | 457 kts | 300° |
| 2026-05-04 01:37 | 25.83033 | 80.45594 | 31782 ft | 458 kts | 300° |
| 2026-05-04 01:37 | 25.86928 | 80.39957 | 31778 ft | 457 kts | 300° |
| 2026-05-04 01:38 | 25.90795 | 80.34351 | 31783 ft | 459 kts | 300° |
| 2026-05-04 01:38 | 25.94663 | 80.28741 | 31795 ft | 456 kts | 300° |
| 2026-05-04 01:39 | 25.98584 | 80.23138 | 31794 ft | 459 kts | 302° |
| 2026-05-04 01:39 | 26.02618 | 80.17640 | 31800 ft | 457 kts | 302° |
| 2026-05-04 01:40 | 26.06605 | 80.12188 | 31796 ft | 459 kts | 302° |
| 2026-05-04 01:40 | 26.10646 | 80.06647 | 31786 ft | 459 kts | 302° |
| 2026-05-04 01:41 | 26.14650 | 80.01149 | 31787 ft | 457 kts | 302° |
| 2026-05-04 01:41 | 26.18658 | 79.95632 | 31795 ft | 458 kts | 302° |
| 2026-05-04 01:42 | 26.22672 | 79.90101 | 31792 ft | 458 kts | 302° |
| 2026-05-04 01:42 | 26.26662 | 79.84593 | 31780 ft | 459 kts | 302° |
| 2026-05-04 01:43 | 26.30681 | 79.79041 | 31792 ft | 459 kts | 302° |
| 2026-05-04 01:43 | 26.34671 | 79.73523 | 31799 ft | 458 kts | 302° |
| 2026-05-04 01:44 | 26.38654 | 79.68004 | 31792 ft | 458 kts | 302° |
| 2026-05-04 01:44 | 26.42628 | 79.62493 | 31802 ft | 457 kts | 302° |
| 2026-05-04 01:45 | 26.46616 | 79.56956 | 31797 ft | 458 kts | 302° |
| 2026-05-04 01:45 | 26.52568 | 79.48679 | 31796 ft | 456 kts | 302° |
| 2026-05-04 01:46 | 26.56562 | 79.43115 | 31792 ft | 457 kts | 302° |
| 2026-05-04 01:46 | 26.60519 | 79.37598 | 31791 ft | 456 kts | 302° |
| 2026-05-04 01:47 | 26.64498 | 79.32041 | 31807 ft | 457 kts | 301° |
| 2026-05-04 01:47 | 26.68450 | 79.26516 | 31794 ft | 456 kts | 301° |
| 2026-05-04 01:48 | 26.72440 | 79.20931 | 31811 ft | 457 kts | 302° |
| 2026-05-04 01:48 | 26.76390 | 79.15395 | 31802 ft | 457 kts | 302° |
| 2026-05-04 01:49 | 26.80364 | 79.09819 | 31803 ft | 456 kts | 301° |
| 2026-05-04 01:49 | 26.84354 | 79.04212 | 31796 ft | 457 kts | 301° |
| 2026-05-04 01:50 | 26.88297 | 78.98667 | 31794 ft | 454 kts | 302° |
| 2026-05-04 01:50 | 26.92231 | 78.93124 | 31800 ft | 456 kts | 302° |
| 2026-05-04 01:51 | 26.96161 | 78.87584 | 31794 ft | 454 kts | 302° |
| 2026-05-04 01:51 | 27.00102 | 78.82018 | 31806 ft | 455 kts | 302° |
| 2026-05-04 01:52 | 27.04041 | 78.76450 | 31803 ft | 453 kts | 302° |
| 2026-05-04 01:52 | 27.07951 | 78.70915 | 31803 ft | 454 kts | 302° |
| 2026-05-04 01:53 | 27.11849 | 78.65389 | 31807 ft | 453 kts | 302° |
| 2026-05-04 01:53 | 27.15786 | 78.59802 | 31793 ft | 451 kts | 302° |
| 2026-05-04 01:54 | 27.19686 | 78.54260 | 31798 ft | 454 kts | 302° |
| 2026-05-04 01:54 | 27.23616 | 78.48670 | 31803 ft | 452 kts | 302° |
| 2026-05-04 01:55 | 27.27496 | 78.43142 | 31783 ft | 452 kts | 302° |
| 2026-05-04 01:55 | 27.31379 | 78.37603 | 31788 ft | 452 kts | 302° |
| 2026-05-04 01:56 | 27.35299 | 78.32005 | 31792 ft | 451 kts | 302° |
| 2026-05-04 01:56 | 27.39102 | 78.26566 | 31803 ft | 452 kts | 302° |
| 2026-05-04 01:57 | 27.42991 | 78.20999 | 31794 ft | 450 kts | 302° |
| 2026-05-04 01:57 | 27.46838 | 78.15485 | 31791 ft | 450 kts | 302° |
| 2026-05-04 01:58 | 27.50710 | 78.09926 | 31784 ft | 451 kts | 302° |
| 2026-05-04 01:58 | 27.54602 | 78.04333 | 31783 ft | 451 kts | 302° |
| 2026-05-04 01:59 | 27.58449 | 77.98797 | 31778 ft | 451 kts | 302° |
| 2026-05-04 01:59 | 27.62314 | 77.93228 | 31784 ft | 452 kts | 302° |
| 2026-05-04 02:00 | 27.66174 | 77.87659 | 31779 ft | 450 kts | 302° |
| 2026-05-04 02:00 | 27.70026 | 77.82095 | 31784 ft | 449 kts | 302° |
| 2026-05-04 02:01 | 27.73856 | 77.76555 | 31792 ft | 450 kts | 302° |
| 2026-05-04 02:01 | 27.77704 | 77.70982 | 31787 ft | 448 kts | 302° |
| 2026-05-04 02:02 | 27.81540 | 77.65419 | 31782 ft | 449 kts | 302° |
| 2026-05-04 02:02 | 27.85348 | 77.59890 | 31792 ft | 451 kts | 302° |
| 2026-05-04 02:03 | 27.89180 | 77.54318 | 31785 ft | 448 kts | 302° |
| 2026-05-04 02:03 | 27.93000 | 77.48757 | 31788 ft | 450 kts | 303° |
| 2026-05-04 02:04 | 27.96839 | 77.43161 | 31785 ft | 450 kts | 303° |
| 2026-05-04 02:04 | 28.00676 | 77.37561 | 31786 ft | 449 kts | 303° |
| 2026-05-04 02:05 | 28.04492 | 77.31984 | 31789 ft | 449 kts | 302° |
| 2026-05-04 02:05 | 28.08309 | 77.26399 | 31793 ft | 449 kts | 302° |
| 2026-05-04 02:06 | 28.12159 | 77.20757 | 31787 ft | 451 kts | 302° |
| 2026-05-04 02:06 | 28.15983 | 77.15147 | 31794 ft | 452 kts | 302° |
| 2026-05-04 02:07 | 28.19811 | 77.09523 | 31804 ft | 451 kts | 302° |
| 2026-05-04 02:07 | 28.23641 | 77.03888 | 31809 ft | 452 kts | 302° |
| 2026-05-04 02:08 | 28.27462 | 76.98261 | 31809 ft | 451 kts | 302° |
| 2026-05-04 02:08 | 28.31283 | 76.92625 | 31801 ft | 452 kts | 303° |
| 2026-05-04 02:09 | 28.35103 | 76.86983 | 31795 ft | 450 kts | 303° |
| 2026-05-04 02:09 | 28.38908 | 76.81357 | 31789 ft | 450 kts | 303° |
| 2026-05-04 02:10 | 28.42724 | 76.75705 | 31790 ft | 450 kts | 303° |
| 2026-05-04 02:10 | 28.46526 | 76.70068 | 31789 ft | 451 kts | 303° |
| 2026-05-04 02:11 | 28.50325 | 76.64427 | 31788 ft | 451 kts | 303° |
| 2026-05-04 02:11 | 28.54136 | 76.58762 | 31789 ft | 450 kts | 303° |
| 2026-05-04 02:12 | 28.57940 | 76.53098 | 31785 ft | 450 kts | 303° |
| 2026-05-04 02:12 | 28.61723 | 76.47459 | 31782 ft | 450 kts | 303° |
| 2026-05-04 02:13 | 28.65532 | 76.41773 | 31777 ft | 449 kts | 303° |
| 2026-05-04 02:13 | 28.66165 | 76.40828 | 31782 ft | 449 kts | 303° |